University Gardens, New York
Current Conditions -  °F | °C
As of 11:51 PM on Monday 20 Oct 2014 (Local Time) from KLGA Reporting Station
Broken Clouds Broken Clouds  
Wind Chill: 58°   Ceiling: 20000
Heat Index: 58°   Visibility: 10mi
Dew Point: 44°   Wind: 9mph
Humidity: 60%   Direction: 210°SSW
Pressure: 29.97"   Gusts: NA
Location:  40.7702°N, 73.7108°W
Report Text: KLGA 210351Z 21008KT 10SM FEW130 BKN200 BKN250 14/07 A2997 RMK AO2 SLP148 T01440067
Loading
Personal Weather Stations






























Interactive Weather Map
Tropical Storm Tracking
New forecast layout! Learn more

10-Day Weather Forecast

Advertisements
Track Severe Weather on mobile